METAR Data
IDs: Format: Raw Decoded Include TAF

Data at: 0827 UTC 20 Sep 2018

PAHY 200756Z AUTO 00000KT 10SM CLR 07/06 A3004 RMK AO2 SLP274 T00720056 401670072 $
PAHY 200656Z AUTO 00000KT 10SM CLR 08/06 A3005 RMK AO2 SLP275 T00780061 $
PAHY 200556Z AUTO 00000KT 7SM CLR 09/07 A3005 RMK AO2 SLP275 T00890067 10161 20089 51006 $
PAHY 200456Z AUTO 33003KT 10SM CLR 10/07 A3004 RMK AO2 SLP274 T01000072 $
PAHY 200356Z AUTO 00000KT 10SM CLR 11/07 A3004 RMK AO2 SLP273 T01110067 $
PAHY 200256Z AUTO 00000KT 10SM CLR 14/07 A3003 RMK AO2 SLP269 T01390067 53001 $
PAHY 200156Z AUTO 23004KT 10SM CLR 16/06 A3002 RMK AO2 SLP266 T01560061 $
PAHY 200056Z AUTO 22004KT 10SM CLR 16/07 A3002 RMK AO2 SLP267 T01610072 $
PAHY 192356Z AUTO 21005KT 10SM CLR 17/08 A3003 RMK AO2 SLP267 T01670083 10167 20111 57012 $
PAHY 192256Z AUTO 22005KT 10SM CLR 16/07 A3004 RMK AO2 SLP272 T01610067 $
PAHY 192156Z AUTO 24004KT 10SM CLR 16/07 A3005 RMK AO2 SLP276 T01610067 $
PAHY 192056Z AUTO 25003KT 10SM CLR 15/07 A3006 RMK AO2 SLP280 T01500067 56007 $
PAHY 191956Z AUTO 00000KT 10SM CLR 13/07 A3007 RMK AO2 SLP282 T01330072 $
PAHY 191856Z AUTO 30003KT 10SM CLR 12/07 A3008 RMK AO2 SLP285 T01220067 $
PAHY 191756Z AUTO 00000KT 10SM CLR 11/07 A3008 RMK AO2 SLP287 T01110072 10111 20083 53002 $
PAHY 191656Z AUTO 00000KT 10SM CLR 09/08 A3008 RMK AO2 SLP287 T00940078 $
PAHY 191556Z AUTO 00000KT 10SM CLR 09/08 A3008 RMK AO2 SLP285 T00890078 $
PAHY 191456Z AUTO 00000KT 10SM CLR 08/07 A3008 RMK AO2 SLP285 T00830072 58001 $
PAHY 191356Z AUTO 00000KT 10SM CLR 09/08 A3008 RMK AO2 SLP286 T00890078 $
PAHY 191256Z AUTO 00000KT 10SM SCT120 09/08 A3008 RMK AO2 SLP286 T00890078 $
PAHY 191156Z AUTO 00000KT 10SM OVC085 09/08 A3008 RMK AO2 SLP286 T00940078 10100 20089 56002 $
PAHY 191056Z AUTO 00000KT 10SM OVC080 09/08 A3008 RMK AO2 SLP287 T00940078 $
PAHY 190956Z AUTO 00000KT 10SM BKN080 09/08 A3008 RMK AO2 SLP287 T00940078 $
PAHY 190856Z AUTO 00000KT 10SM OVC080 09/08 A3009 RMK AO2 SLP288 T00940078 58003 $
PAHY 190756Z AUTO 00000KT 10SM OVC080 09/08 A3009 RMK AO2 SLP289 T00940078 401330078 $
PAHY 190656Z AUTO 00000KT 9SM OVC070 10/08 A3010 RMK AO2 SLP292 T01000078 $
PAHY 190556Z AUTO 00000KT 10SM BKN075 OVC085 10/08 A3010 RMK AO2 SLP291 T01000078 10133 20100 51002 $
PAHY 190456Z AUTO 00000KT 10SM OVC070 11/08 A3009 RMK AO2 SLP291 T01060078 $
PAHY 190356Z AUTO 00000KT 10SM OVC085 12/08 A3009 RMK AO2 SLP290 T01170078 $
PAHY 190256Z AUTO 00000KT 10SM OVC085 12/07 A3009 RMK AO2 SLP289 T01220072 53001 $
PAHY 190156Z AUTO 11007KT 10SM OVC085 13/07 A3009 RMK AO2 SLP288 T01280072 $
PAHY 190056Z AUTO 11010KT 10SM SCT060 OVC090 13/07 A3008 RMK AO2 SLP287 T01280072 $
PAHY 182356Z AUTO 12010KT 10SM OVC070 13/07 A3009 RMK AO2 SLP288 T01280072 10133 20117 57002 $
PAHY 182256Z AUTO 12009KT 10SM OVC065 13/07 A3009 RMK AO2 SLP288 T01330067 $
PAHY 182156Z AUTO 12011KT 10SM OVC070 13/06 A3009 RMK AO2 SLP289 T01330056 $
PAHY 182056Z AUTO 12009KT 10SM SCT090 BKN120 13/05 A3009 RMK AO2 SLP290 T01330050 58002 $